createdAt,value
2018-12-03T00:00:03.410Z,53.07
2018-12-03T00:04:22.168Z,56.60
2018-12-03T00:08:34.136Z,50.63
2018-12-03T00:12:46.670Z,50.07
2018-12-03T00:16:58.585Z,54.63
2018-12-03T00:21:10.987Z,59.47
2018-12-03T00:25:22.992Z,48.67
2018-12-03T00:29:34.912Z,48.47
2018-12-03T00:33:46.920Z,50.80
2018-12-03T00:37:58.869Z,52.87
2018-12-03T00:42:11.095Z,46.03
2018-12-03T00:46:23.196Z,45.20
2018-12-03T00:50:35.313Z,36.87
2018-12-03T00:54:47.415Z,41.37
2018-12-03T00:58:59.606Z,49.40
2018-12-03T01:03:11.824Z,37.47
2018-12-03T01:07:24.075Z,35.90
2018-12-03T01:11:36.381Z,35.23
2018-12-03T01:15:48.574Z,42.93
2018-12-03T01:20:00.789Z,43.80
2018-12-03T01:24:12.881Z,47.03
2018-12-03T01:28:25.075Z,49.53
2018-12-03T01:32:37.383Z,39.50
2018-12-03T01:36:50.006Z,47.23
2018-12-03T01:41:02.296Z,41.67
2018-12-03T01:45:14.651Z,39.17
2018-12-03T01:49:26.646Z,44.97
2018-12-03T01:53:39.007Z,36.77
2018-12-03T01:57:51.079Z,44.30
2018-12-03T02:02:03.330Z,42.67
2018-12-03T02:06:15.440Z,41.93
2018-12-03T02:10:27.601Z,43.47
2018-12-03T02:14:39.855Z,49.60
2018-12-03T02:18:52.269Z,42.30
2018-12-03T02:23:04.346Z,47.07
2018-12-03T02:27:16.355Z,43.67
2018-12-03T02:31:28.565Z,38.03
2018-12-03T02:35:40.765Z,42.10
2018-12-03T02:39:52.871Z,32.83
2018-12-03T02:44:05.192Z,38.70
2018-12-03T02:48:17.378Z,35.57
2018-12-03T02:52:29.601Z,22.90
2018-12-03T02:56:41.909Z,25.43
2018-12-03T03:00:54.047Z,20.33
2018-12-03T03:05:06.817Z,24.90
2018-12-03T03:09:25.229Z,30.47
2018-12-03T03:13:37.282Z,43.80
2018-12-03T03:17:49.316Z,37.43
2018-12-03T03:22:01.370Z,26.33
2018-12-03T03:26:13.452Z,35.27
2018-12-03T03:30:25.438Z,43.77
2018-12-03T03:34:37.761Z,42.33
2018-12-03T03:38:49.951Z,37.63
2018-12-03T03:43:02.199Z,38.60
2018-12-03T03:47:14.381Z,41.73
2018-12-03T03:51:26.618Z,28.23
2018-12-03T03:55:38.710Z,32.37
2018-12-03T03:59:50.930Z,32.83
2018-12-03T04:04:03.114Z,31.80
2018-12-03T04:08:14.818Z,37.17
2018-12-03T04:12:26.761Z,25.27
2018-12-03T04:16:38.572Z,25.40
2018-12-03T04:20:50.573Z,32.23
2018-12-03T04:25:02.546Z,32.30
2018-12-03T04:29:14.664Z,31.00
2018-12-03T04:33:26.960Z,52.00
2018-12-03T04:37:39.181Z,56.83
2018-12-03T04:41:51.483Z,55.97
2018-12-03T04:46:03.979Z,55.83
2018-12-03T04:50:19.672Z,54.50
2018-12-03T04:54:31.638Z,59.60
2018-12-03T04:58:43.513Z,53.40
2018-12-03T05:02:55.753Z,51.70
2018-12-03T05:07:07.830Z,54.17
2018-12-03T05:11:19.931Z,34.87
2018-12-03T05:15:32.126Z,48.70
2018-12-03T05:19:43.927Z,46.03
2018-12-03T05:23:55.819Z,45.27
2018-12-03T05:28:07.754Z,50.17
2018-12-03T05:32:19.872Z,42.50
2018-12-03T05:36:32.065Z,48.53
2018-12-03T05:40:44.358Z,51.20
2018-12-03T05:44:56.575Z,57.10
2018-12-03T05:49:08.402Z,50.17
2018-12-03T05:53:20.341Z,58.13
2018-12-03T05:57:32.200Z,54.93
2018-12-03T06:01:44.320Z,61.63
2018-12-03T06:05:56.457Z,55.50
2018-12-03T06:10:11.397Z,67.27
2018-12-03T06:14:23.275Z,52.63
2018-12-03T06:18:35.161Z,50.10
2018-12-03T06:22:47.468Z,67.83
2018-12-03T06:26:59.421Z,59.57
2018-12-03T06:31:11.628Z,73.10
2018-12-03T06:35:23.874Z,55.43
2018-12-03T06:39:36.037Z,49.30
2018-12-03T06:43:48.260Z,58.63
2018-12-03T06:48:04.480Z,69.97
2018-12-03T06:52:16.361Z,67.20
2018-12-03T06:56:28.617Z,55.33
2018-12-03T07:00:40.558Z,57.70
2018-12-03T07:04:52.474Z,61.50
2018-12-03T07:09:05.773Z,48.90
2018-12-03T07:13:23.158Z,53.03
2018-12-03T07:17:35.157Z,60.57
2018-12-03T07:21:47.275Z,55.67
2018-12-03T07:25:59.470Z,59.87
2018-12-03T07:30:16.265Z,50.37
2018-12-03T07:34:28.588Z,59.23
2018-12-03T07:38:40.311Z,50.00
2018-12-03T07:42:52.294Z,57.77
2018-12-03T07:47:04.141Z,60.83
2018-12-03T07:51:16.221Z,67.73
2018-12-03T07:55:29.026Z,57.47
2018-12-03T07:59:40.947Z,48.27
2018-12-03T08:03:53.052Z,54.40
2018-12-03T08:08:05.198Z,66.10
2018-12-03T08:12:17.394Z,61.00
2018-12-03T08:16:29.491Z,67.50
2018-12-03T08:20:57.518Z,61.03
2018-12-03T08:25:09.970Z,67.27
2018-12-03T08:29:21.944Z,63.60
2018-12-03T08:33:33.902Z,54.47
2018-12-03T08:37:45.906Z,58.77
2018-12-03T08:41:58.015Z,65.33
2018-12-03T08:46:11.145Z,66.87
2018-12-03T08:50:26.528Z,69.97
2018-12-03T08:55:15.911Z,62.83
2018-12-03T08:59:34.682Z,61.73
2018-12-03T09:03:50.930Z,57.27
2018-12-03T09:08:03.017Z,50.40
2018-12-03T09:12:15.083Z,62.17
2018-12-03T09:16:26.855Z,60.53
2018-12-03T09:20:38.628Z,64.80
2018-12-03T09:24:50.585Z,71.77
2018-12-03T09:29:02.603Z,67.20
2018-12-03T09:33:14.803Z,70.63
2018-12-03T09:37:29.285Z,57.33
2018-12-03T09:41:41.486Z,56.40
2018-12-03T09:45:53.638Z,57.73
2018-12-03T09:50:05.972Z,54.67
2018-12-03T09:54:17.739Z,60.97
2018-12-03T09:58:29.650Z,60.63
2018-12-03T10:02:41.542Z,73.30
2018-12-03T10:06:53.429Z,68.13
2018-12-03T10:11:05.837Z,69.77
2018-12-03T10:15:17.920Z,68.37
2018-12-03T10:19:29.923Z,70.00
2018-12-03T10:23:42.045Z,46.87
2018-12-03T10:28:00.939Z,56.50
2018-12-03T10:32:17.440Z,60.20
2018-12-03T10:36:29.609Z,57.23
2018-12-03T10:40:44.391Z,58.47
2018-12-03T10:44:56.314Z,54.83
2018-12-03T10:49:09.952Z,46.90
2018-12-03T10:53:27.000Z,51.50
2018-12-03T10:57:39.741Z,43.30
2018-12-03T11:01:57.800Z,45.17
2018-12-03T11:06:14.630Z,39.87
2018-12-03T11:10:30.618Z,47.67
2018-12-03T11:14:42.940Z,34.67
2018-12-03T11:18:55.987Z,39.73
2018-12-03T11:23:08.426Z,37.77
2018-12-03T11:27:21.204Z,39.30
2018-12-03T11:31:34.499Z,36.10
2018-12-03T11:35:46.329Z,40.13
2018-12-03T11:41:05.109Z,36.10
2018-12-03T11:45:16.928Z,33.87
2018-12-03T11:49:29.230Z,38.90
2018-12-03T11:53:41.025Z,33.77
2018-12-03T11:57:53.318Z,33.27
2018-12-03T12:02:05.284Z,31.83
2018-12-03T12:06:17.198Z,27.83
2018-12-03T12:10:29.195Z,38.47
2018-12-03T12:14:41.309Z,38.20
2018-12-03T12:18:53.599Z,35.13
2018-12-03T12:23:05.803Z,30.30
2018-12-03T12:27:17.934Z,31.63
2018-12-03T12:31:30.149Z,35.93
2018-12-03T12:35:42.338Z,36.97
2018-12-03T12:39:54.468Z,39.67
2018-12-03T12:44:07.322Z,37.70
2018-12-03T12:48:19.096Z,38.73
2018-12-03T12:52:31.089Z,38.43
2018-12-03T12:56:43.158Z,35.60
2018-12-03T13:00:55.219Z,33.30
2018-12-03T13:05:07.020Z,39.83
2018-12-03T13:09:18.858Z,39.10
2018-12-03T13:13:30.663Z,46.73
2018-12-03T13:17:43.641Z,41.57
2018-12-03T13:21:55.941Z,39.33
2018-12-03T13:26:08.502Z,36.83
2018-12-03T13:30:20.529Z,40.87
2018-12-03T13:34:34.489Z,48.57
2018-12-03T13:38:46.476Z,38.60
2018-12-03T13:42:58.590Z,44.60
2018-12-03T13:47:10.571Z,33.57
2018-12-03T13:51:22.869Z,37.70
2018-12-03T13:55:34.531Z,40.37
2018-12-03T13:59:46.407Z,38.10
2018-12-03T14:04:14.909Z,39.47
2018-12-03T14:08:37.609Z,35.67
2018-12-03T14:13:00.739Z,40.90
2018-12-03T14:17:19.665Z,46.17
2018-12-03T14:21:40.490Z,45.13
2018-12-03T14:25:52.372Z,42.43
2018-12-03T14:30:05.302Z,53.83
2018-12-03T14:34:20.670Z,47.30
2018-12-03T14:38:32.869Z,45.93
2018-12-03T14:42:44.661Z,43.87
2018-12-03T14:46:56.542Z,44.87
2018-12-03T14:51:08.442Z,39.27
2018-12-03T14:55:20.326Z,35.40
2018-12-03T14:59:32.305Z,39.97
2018-12-03T15:03:44.430Z,45.33
2018-12-03T15:07:56.520Z,47.33
2018-12-03T15:12:08.741Z,41.37
2018-12-03T15:16:20.506Z,40.07
2018-12-03T15:20:32.336Z,39.23
2018-12-03T15:24:44.445Z,44.10
2018-12-03T15:28:56.663Z,45.00
2018-12-03T15:33:08.897Z,42.63
2018-12-03T15:37:21.060Z,40.87
2018-12-03T15:41:33.258Z,52.53
2018-12-03T15:45:44.973Z,47.10
2018-12-03T15:49:56.879Z,49.90
2018-12-03T15:54:08.891Z,38.93
2018-12-03T15:58:20.967Z,45.10
2018-12-03T16:02:33.210Z,53.40
2018-12-03T16:06:44.999Z,45.37
2018-12-03T16:10:56.989Z,54.47
2018-12-03T16:15:09.865Z,49.03
2018-12-03T16:19:21.936Z,38.30
2018-12-03T16:23:34.058Z,44.23
2018-12-03T16:27:45.851Z,52.10
2018-12-03T16:31:57.865Z,46.40
2018-12-03T16:36:09.751Z,36.80
2018-12-03T16:40:21.748Z,47.33
2018-12-03T16:44:33.961Z,39.93
2018-12-03T16:48:45.602Z,40.27
2018-12-03T16:52:57.343Z,47.10
2018-12-03T16:57:09.329Z,43.33
2018-12-03T17:01:21.306Z,39.80
2018-12-03T17:05:33.400Z,45.33
2018-12-03T17:09:45.489Z,45.80
2018-12-03T17:13:57.731Z,38.27
2018-12-03T17:18:09.926Z,48.67
2018-12-03T17:22:44.513Z,35.17
2018-12-03T17:26:57.477Z,43.50
2018-12-03T17:31:09.719Z,36.73
2018-12-03T17:35:21.823Z,112.63
2018-12-03T17:39:34.112Z,46.60
2018-12-03T17:43:46.508Z,47.10
2018-12-03T17:47:59.182Z,47.87
2018-12-03T17:52:11.414Z,37.43
2018-12-03T17:56:23.529Z,36.03
2018-12-03T18:00:35.557Z,41.80
2018-12-03T18:04:47.732Z,41.63
2018-12-03T18:08:59.535Z,43.87
2018-12-03T18:13:11.676Z,38.40
2018-12-03T18:17:23.552Z,41.73
2018-12-03T18:21:35.487Z,39.43
2018-12-03T18:25:47.754Z,35.57
2018-12-03T18:30:00.031Z,37.57
2018-12-03T18:34:13.987Z,43.07
2018-12-03T18:38:26.535Z,40.40
2018-12-03T18:42:39.019Z,46.33
2018-12-03T18:46:51.657Z,35.50
2018-12-03T18:51:04.021Z,30.67
2018-12-03T18:55:15.865Z,33.97
2018-12-03T18:59:27.964Z,28.40
2018-12-03T19:03:40.070Z,35.70
2018-12-03T19:07:52.264Z,37.83
2018-12-03T19:12:04.403Z,39.57
2018-12-03T19:16:16.497Z,42.83
2018-12-03T19:20:28.696Z,48.90
2018-12-03T19:24:40.915Z,41.73
2018-12-03T19:28:53.184Z,47.47
2018-12-03T19:33:05.494Z,44.47
2018-12-03T19:37:17.671Z,45.67
2018-12-03T19:41:29.874Z,39.27
2018-12-03T19:45:42.066Z,40.53
2018-12-03T19:49:53.758Z,43.77
2018-12-03T19:54:05.741Z,37.23
2018-12-03T19:58:21.682Z,31.87
2018-12-03T20:02:33.520Z,32.33
2018-12-03T20:06:45.482Z,32.50
2018-12-03T20:10:57.613Z,39.97
2018-12-03T20:15:10.346Z,47.03
2018-12-03T20:19:22.205Z,51.20
2018-12-03T20:23:40.376Z,39.77
2018-12-03T20:27:59.866Z,38.57
2018-12-03T20:32:18.637Z,44.47
2018-12-03T20:37:43.846Z,38.40
2018-12-03T20:41:58.809Z,37.53
2018-12-03T20:46:16.444Z,39.33
2018-12-03T20:50:35.882Z,38.70
2018-12-03T20:54:48.757Z,43.90
2018-12-03T20:59:00.638Z,41.13
2018-12-03T21:03:12.565Z,37.67
2018-12-03T21:07:24.775Z,39.60
2018-12-03T21:11:37.022Z,38.90
2018-12-03T21:15:49.093Z,38.50
2018-12-03T21:20:14.281Z,42.93
2018-12-03T21:24:26.210Z,49.27
2018-12-03T21:28:38.102Z,40.87
2018-12-03T21:32:50.132Z,36.87
2018-12-03T21:37:02.213Z,40.90
2018-12-03T21:41:14.465Z,48.17
2018-12-03T21:45:26.669Z,36.70
2018-12-03T21:49:38.841Z,45.10
2018-12-03T21:53:50.708Z,46.10
2018-12-03T21:58:02.822Z,44.40
2018-12-03T22:02:14.733Z,45.97
2018-12-03T22:06:26.587Z,51.17
2018-12-03T22:10:38.610Z,52.93
2018-12-03T22:14:50.798Z,49.60
2018-12-03T22:19:02.997Z,45.37
2018-12-03T22:23:15.471Z,43.03
2018-12-03T22:27:27.579Z,48.50
2018-12-03T22:31:39.753Z,42.20
2018-12-03T22:35:51.860Z,44.43
2018-12-03T22:40:03.915Z,39.30
2018-12-03T22:44:16.066Z,37.97
2018-12-03T22:48:28.181Z,34.23
2018-12-03T22:52:40.389Z,43.43
2018-12-03T22:56:52.312Z,46.60
2018-12-03T23:01:08.010Z,43.83
2018-12-03T23:05:20.225Z,40.43
2018-12-03T23:09:32.437Z,49.50
2018-12-03T23:13:44.513Z,49.03
2018-12-03T23:17:56.594Z,41.33
2018-12-03T23:22:08.726Z,37.67
2018-12-03T23:26:20.914Z,39.40
2018-12-03T23:30:49.192Z,42.00
2018-12-03T23:35:01.011Z,44.63
2018-12-03T23:39:13.007Z,38.93
2018-12-03T23:43:25.239Z,47.50
2018-12-03T23:47:37.579Z,47.53
2018-12-03T23:51:49.755Z,41.07
2018-12-03T23:56:01.963Z,45.60
